createdAt,value
2022-12-07T00:01:41.485Z,0.93
2022-12-07T00:04:11.767Z,1.10
2022-12-07T00:06:40.107Z,1.35
2022-12-07T00:09:09.864Z,1.00
2022-12-07T00:11:36.046Z,1.20
2022-12-07T00:14:08.150Z,1.17
2022-12-07T00:16:35.507Z,1.20
2022-12-07T00:19:01.844Z,1.27
2022-12-07T00:21:30.878Z,1.15
2022-12-07T00:23:57.515Z,1.10
2022-12-07T00:26:31.083Z,0.95
2022-12-07T00:29:00.538Z,1.20
2022-12-07T00:31:31.691Z,1.35
2022-12-07T00:33:58.659Z,1.20
2022-12-07T00:36:27.273Z,1.02
2022-12-07T00:38:55.006Z,1.10
2022-12-07T00:41:23.744Z,1.10
2022-12-07T00:43:50.589Z,1.10
2022-12-07T00:46:18.039Z,1.10
2022-12-07T00:48:44.880Z,1.20
2022-12-07T00:51:12.204Z,1.20
2022-12-07T00:53:41.569Z,1.05
2022-12-07T00:56:12.187Z,1.10
2022-12-07T00:58:38.525Z,1.17
2022-12-07T01:01:06.120Z,1.10
2022-12-07T01:03:32.823Z,0.98
2022-12-07T01:05:59.341Z,1.20
2022-12-07T01:08:26.705Z,1.15
2022-12-07T01:11:05.424Z,1.00
2022-12-07T01:13:32.681Z,1.00
2022-12-07T01:16:01.153Z,1.00
2022-12-07T01:18:30.879Z,1.38
2022-12-07T01:21:07.113Z,1.05
2022-12-07T01:23:34.641Z,1.00
2022-12-07T01:26:03.180Z,1.23
2022-12-07T01:28:29.856Z,1.17
2022-12-07T01:31:00.795Z,1.38
2022-12-07T01:33:28.996Z,1.48
2022-12-07T01:35:55.566Z,1.20
2022-12-07T01:38:21.604Z,1.10
2022-12-07T01:40:54.910Z,1.00
2022-12-07T01:43:21.417Z,1.15
2022-12-07T01:45:47.522Z,1.35
2022-12-07T01:48:17.757Z,1.30
2022-12-07T01:50:48.110Z,1.20
2022-12-07T01:53:15.049Z,1.20
2022-12-07T01:55:44.960Z,1.00
2022-12-07T01:58:12.625Z,1.30
2022-12-07T02:00:39.068Z,1.15
2022-12-07T02:03:16.188Z,1.10
2022-12-07T02:05:43.027Z,1.00
2022-12-07T02:08:10.932Z,1.20
2022-12-07T02:10:37.186Z,1.10
2022-12-07T02:13:11.581Z,1.02
2022-12-07T02:16:01.433Z,0.85
2022-12-07T02:18:58.429Z,0.98
2022-12-07T02:21:30.563Z,1.17
2022-12-07T02:24:37.649Z,1.00
2022-12-07T02:27:22.351Z,1.20
2022-12-07T02:30:08.757Z,1.10
2022-12-07T02:32:59.673Z,0.95
2022-12-07T02:35:34.649Z,1.27
2022-12-07T02:38:21.008Z,1.30
2022-12-07T02:41:05.764Z,1.30
2022-12-07T02:43:38.570Z,1.05
2022-12-07T02:46:14.206Z,0.98
2022-12-07T02:48:43.038Z,0.80
2022-12-07T02:51:09.211Z,1.10
2022-12-07T02:53:43.523Z,1.45
2022-12-07T02:56:42.072Z,1.00
2022-12-07T02:59:21.266Z,1.10
2022-12-07T03:02:03.237Z,1.20
2022-12-07T03:04:41.426Z,1.10
2022-12-07T03:07:18.867Z,1.10
2022-12-07T03:10:33.202Z,1.10
2022-12-07T03:13:25.774Z,1.10
2022-12-07T03:16:16.755Z,1.10
2022-12-07T03:19:03.685Z,1.10
2022-12-07T03:21:38.984Z,0.93
2022-12-07T03:24:11.508Z,1.20
2022-12-07T03:26:45.143Z,1.00
2022-12-07T03:29:25.625Z,1.10
2022-12-07T03:32:02.495Z,1.10
2022-12-07T03:34:43.601Z,0.98
2022-12-07T03:37:19.193Z,1.05
2022-12-07T03:39:52.977Z,1.08
2022-12-07T03:42:19.069Z,1.10
2022-12-07T03:44:46.126Z,1.08
2022-12-07T03:47:27.125Z,1.00
2022-12-07T03:50:06.487Z,1.20
2022-12-07T03:52:51.503Z,1.00
2022-12-07T03:55:22.995Z,0.98
2022-12-07T03:57:55.002Z,1.10
2022-12-07T04:00:21.588Z,0.90
2022-12-07T04:02:47.956Z,1.08
2022-12-07T04:05:14.099Z,1.00
2022-12-07T04:07:41.310Z,1.15
2022-12-07T04:10:07.953Z,1.10
2022-12-07T04:12:34.117Z,1.00
2022-12-07T04:15:00.173Z,0.95
2022-12-07T04:17:26.261Z,1.05
2022-12-07T04:19:52.323Z,1.00
2022-12-07T04:22:18.402Z,0.95
2022-12-07T04:24:44.478Z,0.70
2022-12-07T04:27:10.776Z,1.10
2022-12-07T04:29:36.839Z,0.80
2022-12-07T04:32:02.897Z,0.90
2022-12-07T04:34:29.028Z,0.95
2022-12-07T04:36:55.308Z,0.77
2022-12-07T04:39:32.059Z,1.13
2022-12-07T04:41:59.359Z,1.10
2022-12-07T04:44:26.448Z,0.80
2022-12-07T04:46:52.867Z,0.90
2022-12-07T04:49:20.033Z,0.90
2022-12-07T04:51:46.984Z,1.00
2022-12-07T04:54:14.759Z,1.02
2022-12-07T04:56:41.143Z,1.00
2022-12-07T04:59:07.553Z,1.02
2022-12-07T05:01:33.939Z,1.00
2022-12-07T05:04:00.188Z,0.90
2022-12-07T05:06:26.382Z,1.10
2022-12-07T05:08:52.519Z,1.00
2022-12-07T05:11:37.441Z,0.80
2022-12-07T05:14:05.521Z,1.10
2022-12-07T05:16:31.681Z,1.20
2022-12-07T05:18:57.876Z,0.90
2022-12-07T05:21:24.140Z,0.90
2022-12-07T05:23:50.482Z,0.85
2022-12-07T05:26:17.039Z,1.00
2022-12-07T05:28:43.111Z,1.10
2022-12-07T05:31:09.373Z,1.00
2022-12-07T05:33:35.844Z,0.70
2022-12-07T05:36:06.501Z,1.00
2022-12-07T05:38:33.380Z,0.98
2022-12-07T05:41:04.146Z,0.90
2022-12-07T05:43:30.941Z,0.82
2022-12-07T05:45:57.406Z,1.15
2022-12-07T05:48:23.800Z,0.90
2022-12-07T05:50:51.006Z,0.95
2022-12-07T05:53:22.682Z,0.80
2022-12-07T05:55:49.189Z,0.90
2022-12-07T05:58:34.073Z,1.05
2022-12-07T06:01:00.209Z,0.88
2022-12-07T06:03:26.321Z,1.10
2022-12-07T06:05:53.224Z,1.00
2022-12-07T06:08:19.892Z,1.30
2022-12-07T06:11:07.812Z,1.20
2022-12-07T06:13:33.845Z,1.30
2022-12-07T06:15:59.902Z,0.80
2022-12-07T06:18:25.941Z,1.08
2022-12-07T06:20:51.976Z,1.20
2022-12-07T06:23:18.026Z,1.40
2022-12-07T06:25:46.350Z,1.20
2022-12-07T06:28:12.405Z,1.20
2022-12-07T06:30:38.433Z,1.17
2022-12-07T06:33:04.485Z,1.30
2022-12-07T06:35:33.328Z,1.50
2022-12-07T06:37:59.541Z,1.33
2022-12-07T06:40:25.643Z,1.67
2022-12-07T06:42:51.692Z,1.40
2022-12-07T06:45:17.751Z,1.80
2022-12-07T06:47:45.741Z,1.50
2022-12-07T06:50:13.024Z,1.75
2022-12-07T06:52:39.100Z,1.40
2022-12-07T06:55:05.640Z,1.60
2022-12-07T06:57:31.680Z,1.50
2022-12-07T06:59:57.967Z,1.50
2022-12-07T07:02:24.157Z,1.60
2022-12-07T07:04:50.258Z,2.20
2022-12-07T07:07:16.296Z,1.90
2022-12-07T07:09:42.333Z,10.48
2022-12-07T07:12:08.376Z,4.38
2022-12-07T07:14:34.492Z,3.60
2022-12-07T07:17:00.677Z,2.47
2022-12-07T07:19:26.788Z,2.17
2022-12-07T07:21:52.867Z,2.38
2022-12-07T07:24:19.013Z,1.73
2022-12-07T07:26:45.073Z,2.10
2022-12-07T07:29:11.104Z,1.58
2022-12-07T07:31:37.525Z,2.15
2022-12-07T07:34:04.487Z,1.80
2022-12-07T07:36:30.629Z,1.83
2022-12-07T07:38:56.685Z,2.47
2022-12-07T07:41:22.731Z,1.98
2022-12-07T07:43:48.800Z,1.70
2022-12-07T07:46:14.865Z,1.70
2022-12-07T07:48:40.945Z,1.67
2022-12-07T07:51:07.802Z,1.92
2022-12-07T07:53:33.941Z,1.70
2022-12-07T07:56:00.029Z,2.03
2022-12-07T07:58:26.174Z,1.45
2022-12-07T08:00:52.393Z,1.70
2022-12-07T08:03:18.432Z,1.40
2022-12-07T08:05:44.471Z,1.58
2022-12-07T08:08:10.648Z,1.38
2022-12-07T08:10:37.433Z,1.23
2022-12-07T08:13:13.930Z,1.40
2022-12-07T08:15:42.522Z,1.73
2022-12-07T08:18:08.941Z,1.50
2022-12-07T08:20:36.625Z,1.63
2022-12-07T08:23:02.982Z,1.35
2022-12-07T08:25:29.635Z,1.38
2022-12-07T08:27:55.967Z,1.20
2022-12-07T08:30:22.215Z,1.05
2022-12-07T08:32:48.794Z,1.33
2022-12-07T08:35:15.536Z,0.90
2022-12-07T08:37:42.065Z,1.00
2022-12-07T08:40:10.029Z,1.00
2022-12-07T08:42:40.388Z,0.95
2022-12-07T08:45:08.621Z,0.80
2022-12-07T08:47:37.662Z,0.90
2022-12-07T08:50:06.452Z,0.80
2022-12-07T08:52:33.132Z,0.73
2022-12-07T08:55:01.924Z,0.80
2022-12-07T08:57:29.033Z,0.63
2022-12-07T08:59:55.095Z,0.90
2022-12-07T09:02:21.133Z,0.60
2022-12-07T09:04:47.208Z,0.80
2022-12-07T09:07:13.369Z,0.70
2022-12-07T09:09:39.457Z,0.60
2022-12-07T09:12:05.516Z,0.73
2022-12-07T09:14:31.583Z,0.50
2022-12-07T09:17:09.965Z,0.70
2022-12-07T09:19:36.354Z,0.65
2022-12-07T09:22:03.577Z,0.70
2022-12-07T09:24:29.613Z,0.65
2022-12-07T09:26:55.725Z,0.50
2022-12-07T09:29:21.800Z,0.70
2022-12-07T09:31:47.852Z,0.70
2022-12-07T09:34:13.997Z,0.63
2022-12-07T09:36:40.209Z,0.60
2022-12-07T09:39:06.510Z,0.52
2022-12-07T09:41:33.338Z,0.70
2022-12-07T09:44:06.620Z,0.57
2022-12-07T09:46:38.618Z,0.63
2022-12-07T09:49:05.816Z,0.47
2022-12-07T09:51:32.401Z,0.43
2022-12-07T09:53:59.763Z,0.73
2022-12-07T09:56:25.984Z,0.80
2022-12-07T09:59:03.785Z,0.40
2022-12-07T10:01:32.632Z,0.30
2022-12-07T10:04:18.667Z,0.40
2022-12-07T10:06:46.262Z,0.60
2022-12-07T10:09:18.928Z,0.50
2022-12-07T10:12:09.611Z,0.47
2022-12-07T10:15:06.868Z,0.52
2022-12-07T10:17:41.052Z,0.50
2022-12-07T10:20:17.819Z,0.60
2022-12-07T10:23:00.529Z,0.40
2022-12-07T10:25:33.174Z,0.30
2022-12-07T10:28:08.759Z,0.60
2022-12-07T10:30:48.569Z,0.63
2022-12-07T10:33:38.709Z,0.40
2022-12-07T10:36:21.263Z,0.60
2022-12-07T10:39:11.494Z,0.50
2022-12-07T10:42:00.595Z,0.60
2022-12-07T10:44:29.305Z,0.65
2022-12-07T10:47:01.101Z,0.30
2022-12-07T10:49:52.877Z,0.43
2022-12-07T10:52:37.745Z,0.60
2022-12-07T10:55:33.069Z,0.55
2022-12-07T10:58:16.832Z,0.60
2022-12-07T11:01:03.842Z,0.50
2022-12-07T11:03:40.128Z,0.43
2022-12-07T11:06:28.354Z,0.68
2022-12-07T11:09:03.853Z,0.50
2022-12-07T11:11:36.278Z,0.52
2022-12-07T11:14:14.513Z,0.52
2022-12-07T11:16:52.774Z,0.50
2022-12-07T11:19:46.471Z,0.43
2022-12-07T11:22:44.632Z,0.38
2022-12-07T11:25:35.862Z,0.50
2022-12-07T11:28:11.060Z,0.63
2022-12-07T11:30:52.909Z,0.50
2022-12-07T11:33:47.497Z,0.60
2022-12-07T11:36:46.139Z,0.65
2022-12-07T11:39:25.356Z,0.47
2022-12-07T11:42:01.485Z,0.52
2022-12-07T11:44:42.519Z,0.65
2022-12-07T11:47:28.591Z,0.50
2022-12-07T11:50:17.414Z,0.50
2022-12-07T11:52:52.108Z,0.50
2022-12-07T11:56:22.859Z,0.40
2022-12-07T11:58:54.681Z,0.40
2022-12-07T12:01:33.616Z,0.60
2022-12-07T12:04:11.288Z,0.40
2022-12-07T12:06:38.944Z,0.70
2022-12-07T12:15:42.981Z,0.70
2022-12-07T12:18:48.157Z,0.70
2022-12-07T12:21:20.302Z,0.50
2022-12-07T12:24:11.707Z,0.45
2022-12-07T12:26:39.177Z,0.50
2022-12-07T12:29:23.723Z,0.50
2022-12-07T12:32:28.584Z,0.63
2022-12-07T12:34:59.906Z,0.50
2022-12-07T12:37:35.066Z,0.50
2022-12-07T12:40:16.284Z,0.60
2022-12-07T12:42:49.832Z,0.50
2022-12-07T12:45:30.744Z,0.55
2022-12-07T12:48:29.630Z,0.50
2022-12-07T12:51:33.365Z,0.63
2022-12-07T12:54:05.514Z,0.60
2022-12-07T12:56:56.027Z,0.60
2022-12-07T12:59:22.025Z,0.50
2022-12-07T13:01:50.622Z,0.32
2022-12-07T13:04:31.024Z,0.40
2022-12-07T13:06:57.161Z,0.60
2022-12-07T13:09:27.186Z,1.00
2022-12-07T13:12:01.630Z,0.50
2022-12-07T13:14:51.384Z,0.40
2022-12-07T13:17:32.945Z,0.50
2022-12-07T13:20:10.456Z,0.40
2022-12-07T13:22:43.627Z,0.30
2022-12-07T13:25:31.924Z,0.40
2022-12-07T13:28:07.729Z,0.52
2022-12-07T13:30:45.200Z,0.40
2022-12-07T13:33:12.097Z,0.30
2022-12-07T13:35:38.537Z,0.47
2022-12-07T13:38:17.002Z,0.50
2022-12-07T13:40:43.051Z,0.60
2022-12-07T13:43:17.084Z,0.40
2022-12-07T13:45:49.158Z,0.50
2022-12-07T13:48:33.241Z,0.65
2022-12-07T13:51:01.426Z,0.60
2022-12-07T13:53:30.705Z,0.50
2022-12-07T13:55:58.506Z,0.50
2022-12-07T13:58:34.709Z,0.47
2022-12-07T14:01:01.075Z,0.50
2022-12-07T14:03:33.352Z,0.50
2022-12-07T14:06:13.878Z,0.50
2022-12-07T14:08:40.029Z,0.50
2022-12-07T14:11:11.497Z,0.45
2022-12-07T14:13:41.361Z,0.50
2022-12-07T14:16:30.642Z,0.45
2022-12-07T14:18:59.128Z,0.50
2022-12-07T14:21:27.911Z,0.35
2022-12-07T14:24:18.627Z,0.85
2022-12-07T14:26:49.957Z,0.52
2022-12-07T14:29:19.546Z,0.52
2022-12-07T14:31:45.648Z,0.75
2022-12-07T14:34:14.903Z,0.40
2022-12-07T14:36:40.959Z,0.50
2022-12-07T14:39:12.925Z,0.75
2022-12-07T14:41:52.374Z,0.60
2022-12-07T14:44:24.298Z,0.60
2022-12-07T14:49:39.788Z,0.60
2022-12-07T14:54:57.758Z,0.50
2022-12-07T14:57:23.969Z,0.40
2022-12-07T14:59:50.036Z,0.60
2022-12-07T15:02:16.586Z,0.57
2022-12-07T15:04:42.905Z,0.60
2022-12-07T15:07:27.025Z,0.47
2022-12-07T15:09:53.084Z,0.45
2022-12-07T15:12:19.211Z,0.70
2022-12-07T15:14:45.281Z,0.60
2022-12-07T15:17:23.177Z,0.50
2022-12-07T15:19:54.265Z,0.40
2022-12-07T15:22:20.296Z,0.55
2022-12-07T15:24:46.344Z,0.50
2022-12-07T15:27:12.405Z,0.60
2022-12-07T15:29:38.476Z,0.50
2022-12-07T15:32:04.734Z,0.47
2022-12-07T15:34:39.211Z,0.68
2022-12-07T15:37:06.633Z,0.50
2022-12-07T15:39:33.127Z,0.50
2022-12-07T15:41:59.232Z,0.60
2022-12-07T15:44:43.896Z,0.50
2022-12-07T15:47:09.955Z,0.60
2022-12-07T15:49:36.115Z,0.57
2022-12-07T15:52:02.198Z,0.60
2022-12-07T15:54:29.479Z,0.68
2022-12-07T15:56:56.185Z,0.70
2022-12-07T15:59:23.045Z,0.60
2022-12-07T16:01:49.174Z,0.70
2022-12-07T16:04:15.337Z,0.55
2022-12-07T16:06:41.450Z,0.60
2022-12-07T16:09:08.307Z,0.55
2022-12-07T16:11:34.544Z,0.57
2022-12-07T16:14:00.699Z,0.52
2022-12-07T16:16:27.726Z,0.70
2022-12-07T16:18:54.463Z,0.60
2022-12-07T16:21:25.105Z,0.60
2022-12-07T16:23:52.230Z,0.77
2022-12-07T16:26:20.557Z,0.65
2022-12-07T16:28:50.185Z,0.60
2022-12-07T16:31:18.977Z,0.80
2022-12-07T16:33:45.350Z,0.60
2022-12-07T16:36:13.878Z,0.60
2022-12-07T16:38:39.953Z,0.70
2022-12-07T16:41:07.325Z,0.80
2022-12-07T16:43:33.779Z,0.90
2022-12-07T16:46:00.096Z,0.68
2022-12-07T16:48:26.169Z,0.65
2022-12-07T16:50:55.365Z,0.70
2022-12-07T16:53:23.343Z,0.60
2022-12-07T16:55:50.217Z,0.60
2022-12-07T16:58:17.777Z,0.80
2022-12-07T17:00:45.009Z,0.80
2022-12-07T17:03:15.133Z,0.77
2022-12-07T17:05:46.541Z,0.90
2022-12-07T17:08:13.718Z,0.82
2022-12-07T17:10:42.941Z,0.70
2022-12-07T17:13:27.529Z,0.50
2022-12-07T17:16:04.967Z,0.80
2022-12-07T17:18:34.049Z,0.75
2022-12-07T17:21:09.038Z,0.68
2022-12-07T17:23:36.351Z,0.80
2022-12-07T17:26:11.584Z,0.70
2022-12-07T17:28:38.170Z,0.77
2022-12-07T17:31:09.673Z,0.82
2022-12-07T17:33:36.059Z,0.80
2022-12-07T17:36:13.468Z,1.00
2022-12-07T17:38:40.457Z,0.60
2022-12-07T17:41:34.573Z,0.70
2022-12-07T17:44:06.482Z,0.60
2022-12-07T17:46:32.838Z,0.70
2022-12-07T17:48:59.862Z,0.73
2022-12-07T17:51:44.992Z,0.60
2022-12-07T17:54:12.192Z,0.70
2022-12-07T17:56:38.846Z,0.93
2022-12-07T17:59:05.686Z,0.70
2022-12-07T18:01:34.767Z,0.80
2022-12-07T18:04:01.892Z,0.70
2022-12-07T18:06:28.021Z,0.80
2022-12-07T18:08:54.204Z,1.02
2022-12-07T18:11:20.312Z,0.90
2022-12-07T18:13:46.448Z,1.00
2022-12-07T18:16:16.556Z,0.90
2022-12-07T18:18:47.734Z,0.90
2022-12-07T18:21:20.482Z,0.60
2022-12-07T18:23:48.920Z,0.73
2022-12-07T18:26:16.453Z,0.60
2022-12-07T18:28:43.566Z,0.68
2022-12-07T18:31:15.301Z,0.73
2022-12-07T18:33:44.335Z,0.70
2022-12-07T18:36:11.053Z,0.60
2022-12-07T18:38:37.614Z,0.70
2022-12-07T18:41:06.324Z,0.80
2022-12-07T18:43:32.355Z,0.77
2022-12-07T18:45:58.452Z,0.90
2022-12-07T18:48:24.567Z,0.80
2022-12-07T18:51:02.787Z,0.70
2022-12-07T18:53:29.039Z,0.70
2022-12-07T18:56:13.601Z,0.77
2022-12-07T18:58:59.492Z,0.70
2022-12-07T19:01:26.024Z,0.98
2022-12-07T19:03:52.196Z,1.05
2022-12-07T19:06:18.229Z,0.80
2022-12-07T19:08:44.306Z,0.90
2022-12-07T19:11:44.282Z,0.70
2022-12-07T19:14:10.983Z,0.55
2022-12-07T19:16:37.472Z,0.82
2022-12-07T19:19:04.116Z,0.82
2022-12-07T19:21:30.213Z,0.80
2022-12-07T19:23:56.345Z,0.90
2022-12-07T19:26:22.809Z,0.85
2022-12-07T19:28:49.573Z,0.80
2022-12-07T19:31:16.199Z,0.90
2022-12-07T19:33:42.388Z,0.70
2022-12-07T19:36:08.752Z,0.85
2022-12-07T19:38:34.863Z,1.08
2022-12-07T19:41:05.885Z,0.70
2022-12-07T19:43:33.599Z,0.80
2022-12-07T19:46:06.891Z,0.77
2022-12-07T19:48:32.976Z,0.75
2022-12-07T19:51:04.655Z,0.73
2022-12-07T19:53:33.553Z,0.60
2022-12-07T19:55:59.786Z,0.93
2022-12-07T19:58:26.028Z,0.63
2022-12-07T20:00:52.391Z,0.80
2022-12-07T20:03:18.496Z,0.88
2022-12-07T20:05:44.564Z,0.90
2022-12-07T20:08:10.664Z,0.90
2022-12-07T20:10:40.062Z,0.80
2022-12-07T20:13:24.664Z,0.88
2022-12-07T20:15:50.745Z,0.80
2022-12-07T20:18:16.803Z,0.90
2022-12-07T20:20:58.553Z,0.82
2022-12-07T20:23:28.510Z,0.80
2022-12-07T20:25:55.132Z,0.80
2022-12-07T20:28:21.921Z,1.00
2022-12-07T20:30:49.799Z,0.82
2022-12-07T20:33:16.573Z,0.77
2022-12-07T20:35:42.767Z,0.80
2022-12-07T20:38:10.408Z,0.75
2022-12-07T20:40:37.484Z,0.73
2022-12-07T20:43:03.812Z,0.80
2022-12-07T20:45:30.229Z,0.93
2022-12-07T20:47:56.289Z,0.80
2022-12-07T20:50:23.300Z,0.90
2022-12-07T20:52:49.413Z,0.88
2022-12-07T20:55:15.470Z,0.90
2022-12-07T20:57:41.792Z,0.82
2022-12-07T21:00:08.465Z,0.82
2022-12-07T21:02:34.755Z,1.00
2022-12-07T21:05:00.966Z,0.80
2022-12-07T21:07:27.105Z,0.95
2022-12-07T21:09:53.143Z,0.90
2022-12-07T21:12:19.282Z,0.80
2022-12-07T21:14:45.382Z,0.80
2022-12-07T21:17:11.518Z,0.82
2022-12-07T21:19:37.722Z,0.70
2022-12-07T21:22:04.347Z,0.80
2022-12-07T21:24:30.464Z,0.75
2022-12-07T21:26:56.539Z,0.70
2022-12-07T21:29:34.635Z,0.90
2022-12-07T21:32:08.832Z,0.90
2022-12-07T21:34:35.301Z,0.85
2022-12-07T21:37:01.655Z,0.88
2022-12-07T21:39:27.808Z,0.82
2022-12-07T21:41:53.864Z,0.90
2022-12-07T21:44:19.946Z,0.90
2022-12-07T21:46:46.071Z,0.80
2022-12-07T21:49:13.742Z,0.77
2022-12-07T21:51:41.979Z,0.98
2022-12-07T21:54:09.848Z,0.90
2022-12-07T21:56:38.980Z,1.00
2022-12-07T21:59:12.701Z,0.70
2022-12-07T22:01:40.578Z,0.77
2022-12-07T22:04:09.132Z,0.60
2022-12-07T22:06:36.937Z,1.17
2022-12-07T22:09:05.608Z,0.93
2022-12-07T22:11:32.675Z,1.00
2022-12-07T22:14:17.278Z,1.02
2022-12-07T22:16:43.378Z,0.90
2022-12-07T22:19:09.507Z,0.98
2022-12-07T22:21:35.600Z,0.93
2022-12-07T22:24:02.846Z,0.85
2022-12-07T22:26:28.971Z,0.80
2022-12-07T22:28:55.162Z,0.93
2022-12-07T22:31:22.442Z,0.80
2022-12-07T22:33:49.540Z,0.90
2022-12-07T22:36:16.480Z,0.63
2022-12-07T22:38:43.290Z,0.80
2022-12-07T22:41:12.471Z,0.77
2022-12-07T22:43:38.954Z,0.98
2022-12-07T22:46:05.319Z,0.80
2022-12-07T22:48:31.796Z,0.82
2022-12-07T22:50:57.844Z,1.00
2022-12-07T22:53:24.290Z,1.00
2022-12-07T22:55:50.984Z,0.82
2022-12-07T22:58:17.453Z,1.00
2022-12-07T23:00:43.675Z,0.85
2022-12-07T23:03:10.230Z,1.40
2022-12-07T23:05:43.797Z,0.77
2022-12-07T23:08:09.984Z,1.00
2022-12-07T23:10:36.552Z,0.75
2022-12-07T23:13:21.306Z,0.85
2022-12-07T23:15:47.389Z,1.13
2022-12-07T23:18:13.468Z,0.70
2022-12-07T23:20:39.505Z,0.90
2022-12-07T23:23:05.574Z,0.63
2022-12-07T23:25:32.345Z,0.80
2022-12-07T23:27:58.423Z,0.90
2022-12-07T23:30:24.468Z,0.85
2022-12-07T23:32:50.596Z,0.85
2022-12-07T23:35:16.665Z,1.05
2022-12-07T23:37:42.708Z,0.88
2022-12-07T23:40:09.119Z,0.80
2022-12-07T23:42:35.189Z,0.85
2022-12-07T23:45:01.912Z,0.73
2022-12-07T23:47:28.230Z,0.98
2022-12-07T23:49:54.282Z,0.90
2022-12-07T23:52:20.329Z,0.80
2022-12-07T23:54:46.453Z,1.00
2022-12-07T23:57:12.502Z,0.73
2022-12-07T23:59:38.676Z,1.08
